Mill Valley, CA

2:19 AM PDT on September 23, 2014 (GMT -0700)
Blithedale Canyon | Change Station
CLOSE
Current Station
Personal Weather Station
Location: Mill Valley, CA
Elevation: 190 ft
Nearby Weather Stations

Elev 190 ft 37.91 °N, 122.55 °W | Updated 6 minutes ago

Clear
Clear
53.1 °F
Feels Like 53.1 °F
N
0.0
Wind Variable Wind from SSE
Gusts 0.0 mph

Today
High -- | Low -- °F
--% Chance of Precip.
Yesterday
High -- | Low -- °F
Precip. -- in
6:58 AM 7:05 PM
Waning Crescent, 1% visible
Pressure 30.00 in
Visibility 10.0 miles
Clouds Mostly Cloudy 1300 ft
Dew Point 52 °F
Humidity 94%
Rainfall 0.00 in
Snow Depth Not available.
UV 0 out of 12
Pollen 3.70 out of 12
Ozone Good
Flu Activity Not available.
METAR KO69 230855Z AUTO 33003KT 10SM BKN013 14/13 A3000 RMK AO1

More Conditions Fewer Conditions

Pressure 30.00 in
Visibility 10.0 miles
Clouds Mostly Cloudy 1300 ft
Dew Point 52 °F
Humidity 94%
Rainfall 0.00 in
Snow Depth Not available.
UV 0 out of 12
Pollen 3.70 out of 12
Ozone Good
Flu Activity Not available.
METAR KO69 230855Z AUTO 33003KT 10SM BKN013 14/13 A3000 RMK AO1

More Conditions Fewer Conditions

10-Day Weather Forecast

Almanac

Astronomy

Sep. 23, 2014 Rise Set
Actual Time 6:58 AM PDT 7:05 PM PDT
Civil Twilight 6:32 AM PDT 7:31 PM PDT
Nautical Twilight 6:02 AM PDT 8:02 PM PDT
Astronomical Twilight 5:30 AM PDT 8:33 PM PDT
Moon 6:28 AM PDT 6:47 PM PDT
Length of Visible Light 12h 58m
Length of Day
12h 06m
Tomorrow will be 2m 25s shorter.
Waning Crescent, 1% of the Moon is Illuminated
Today
Waning Crescent
Sep 24
New
Oct 1
First Quarter
Oct 8
Full
Oct 15
Last Quarter

Today's Extremes

State Highs State Lows

Community

WunderPhotos

Upload Photos

1,755,643 photos uploaded!

Nearby

Air Quality

  Air Quality AQ Index Pollutant
Yesterday Good
OZONE
Current Good
OZONE
Tuesday Good
PM2.5
Wednesday Good
PM2.5
Thursday Good
OZONE
Friday Good
OZONE
Saturday Good
OZONE

Snow Depth

Station Depth Elevation
Blue Lakes 0 in 8000 ft
Monitor Pass 0 in 8350 ft
CSS Lab 3 in 6900 ft
Burnside Lake 1 in 8139 ft
Tahoe City Cross 0 in 6750 ft

Earthquake Activity

City Distance Mag. Time & Date
Yountville, California 30 miles 2.6 1:17 PM PDT
2014-09-21
Minimum magnitude displayed is 2.5.

Coastal Water Temperatures

Place Temperature
San Francisco, CA 64.9 °F
Richmond, CA 66.9 °F
Port Chicago, CA 69.1 °F

Nearby Weather Stations